Time;durP1;ratioP1;P1;durP2;ratioP2;P2;SDS_P1;SDS_P2;PMS_P1;PMS_P2;Temp;Humidity;BMP_temperature;BMP_pressure;BME280_temperature;BME280_humidity;BME280_pressure;Samples;Min_cycle;Max_cycle;Signal;HPM_P1;HPM_P2
2021/06/04 00:07:39;;;;;;;1.67;1.20;;;20.60;67.50;;;;;;20980292;28;20048;-77
2021/06/04 00:17:42;;;;;;;1.17;0.95;;;20.60;67.50;;;;;;20963315;28;20386;-77
2021/06/04 00:27:44;;;;;;;1.40;1.10;;;20.60;67.50;;;;;;20998119;28;20050;-77
2021/06/04 00:37:47;;;;;;;1.90;1.30;;;20.60;67.60;;;;;;20945018;28;20040;-77
2021/06/04 00:47:49;;;;;;;1.92;1.20;;;20.60;67.60;;;;;;20976750;28;20101;-78
2021/06/04 00:57:51;;;;;;;2.10;1.33;;;20.60;67.70;;;;;;20959529;28;20032;-76
2021/06/04 01:08:03;;;;;;;1.35;1.08;;;20.50;67.60;;;;;;20960000;28;20387;-77
2021/06/04 01:18:43;;;;;;;2.35;1.30;;;20.50;67.60;;;;;;20942537;28;20040;-77
2021/06/04 01:28:49;;;;;;;1.27;1.17;;;20.50;67.70;;;;;;20991850;28;20034;-78
2021/06/04 01:38:52;;;;;;;1.90;1.20;;;20.50;67.70;;;;;;20973274;28;20390;-77
2021/06/04 01:48:58;;;;;;;1.35;1.10;;;20.50;67.70;;;;;;20955795;28;20036;-77
2021/06/04 01:59:03;;;;;;;1.33;1.10;;;20.50;67.70;;;;;;20939905;28;20098;-77
2021/06/04 02:09:10;;;;;;;2.15;1.40;;;20.50;67.70;;;;;;20923602;28;20131;-77
2021/06/04 02:19:29;;;;;;;1.70;1.10;;;20.50;67.70;;;;;;20943110;28;20025;-77
2021/06/04 02:30:07;;;;;;;1.75;1.50;;;20.50;67.80;;;;;;20954783;28;20053;-77
2021/06/04 02:40:24;;;;;;;1.92;1.35;;;20.50;67.80;;;;;;20949217;28;20582;-77
2021/06/04 02:50:33;;;;;;;1.55;1.20;;;20.50;67.90;;;;;;20938661;28;20402;-77
2021/06/04 03:00:41;;;;;;;1.75;1.40;;;20.40;67.90;;;;;;20969251;28;20086;-77
2021/06/04 03:10:52;;;;;;;2.10;1.30;;;20.50;67.90;;;;;;20968462;28;20044;-77
2021/06/04 03:20:55;;;;;;;1.63;1.17;;;20.40;67.90;;;;;;20954295;28;20048;-78
2021/06/04 03:30:58;;;;;;;1.67;1.20;;;20.40;67.90;;;;;;20966987;28;20029;-78
2021/06/04 03:41:02;;;;;;;2.78;1.25;;;20.40;67.90;;;;;;20949555;28;20036;-78
2021/06/04 03:51:14;;;;;;;1.60;1.33;;;20.40;67.90;;;;;;20982586;28;20055;-79
2021/06/04 04:01:26;;;;;;;1.23;1.10;;;20.40;68.00;;;;;;20949590;28;20474;-77
2021/06/04 04:11:27;;;;;;;1.30;1.20;;;20.40;67.90;;;;;;20948059;28;20086;-77
2021/06/04 04:21:28;;;;;;;1.85;1.55;;;20.40;67.90;;;;;;20963177;28;20585;-78
2021/06/04 04:31:38;;;;;;;2.15;1.67;;;20.40;67.90;;;;;;20963725;28;20123;-78
2021/06/04 04:41:40;;;;;;;2.20;1.30;;;20.40;67.90;;;;;;20929140;28;20071;-76
2021/06/04 04:51:42;;;;;;;2.55;1.50;;;20.40;67.90;;;;;;20963517;28;20032;-81
2021/06/04 05:01:47;;;;;;;1.20;0.93;;;20.30;67.90;;;;;;20979221;28;20029;-77
2021/06/04 05:11:48;;;;;;;1.50;1.10;;;20.40;67.90;;;;;;20952468;28;20050;-81
2021/06/04 05:21:51;;;;;;;1.77;1.40;;;20.40;67.90;;;;;;20979136;28;20127;-85
2021/06/04 05:31:56;;;;;;;1.45;1.35;;;20.40;67.90;;;;;;20949736;28;20040;-79
2021/06/04 05:42:00;;;;;;;1.50;1.40;;;20.40;67.90;;;;;;20983837;28;20055;-82
2021/06/04 05:52:08;;;;;;;1.43;1.17;;;20.40;67.90;;;;;;20966241;28;20135;-82
2021/06/04 06:02:10;;;;;;;2.97;1.77;;;20.30;67.80;;;;;;20988042;28;20076;-76
2021/06/04 06:12:12;;;;;;;2.30;1.60;;;20.40;67.90;;;;;;20953572;28;20143;-74
2021/06/04 06:22:14;;;;;;;2.60;1.60;;;20.50;67.90;;;;;;20918484;28;20491;-78
2021/06/04 06:32:20;;;;;;;2.65;1.88;;;20.50;67.90;;;;;;20945052;28;20111;-77
2021/06/04 06:42:21;;;;;;;3.10;1.67;;;20.50;67.80;;;;;;20977920;28;20090;-80
2021/06/04 06:52:22;;;;;;;2.60;2.10;;;20.50;67.70;;;;;;20978126;28;20119;-76
2021/06/04 07:02:23;;;;;;;2.53;1.92;;;20.60;67.80;;;;;;20988531;28;20078;-78
2021/06/04 07:12:23;;;;;;;2.05;1.60;;;20.60;67.80;;;;;;20982916;28;20025;-83
2021/06/04 07:22:25;;;;;;;2.38;1.90;;;20.60;67.70;;;;;;20951009;28;20043;-79
2021/06/04 07:32:26;;;;;;;2.43;1.60;;;20.70;67.70;;;;;;20966235;28;20018;-80
2021/06/04 07:42:26;;;;;;;4.43;1.92;;;20.70;67.70;;;;;;20928880;28;20299;-78
2021/06/04 07:52:27;;;;;;;3.33;1.85;;;20.70;67.60;;;;;;20929604;28;20849;-80
2021/06/04 08:02:29;;;;;;;2.30;1.83;;;20.80;67.70;;;;;;20962920;28;20055;-76
2021/06/04 08:12:33;;;;;;;4.05;2.35;;;20.80;67.60;;;;;;20964152;28;20413;-80
2021/06/04 08:22:42;;;;;;;2.83;1.90;;;20.90;67.60;;;;;;20986344;28;20445;-78
2021/06/04 08:32:43;;;;;;;2.58;1.88;;;20.80;67.40;;;;;;20972896;28;20039;-78
2021/06/04 08:42:52;;;;;;;3.15;2.15;;;20.90;68.10;;;;;;20984388;28;20036;-81
2021/06/04 08:53:19;;;;;;;4.35;2.28;;;20.90;67.40;;;;;;20910900;28;20041;-77
2021/06/04 09:03:38;;;;;;;5.53;2.25;;;20.90;67.40;;;;;;20959473;28;20098;-81
2021/06/04 09:13:40;;;;;;;2.63;2.00;;;20.90;67.30;;;;;;21279856;22;20107;-80
2021/06/04 09:23:43;;;;;;;2.70;2.28;;;20.90;67.40;;;;;;20874322;28;20493;-79
2021/06/04 09:33:51;;;;;;;2.97;2.00;;;20.90;67.40;;;;;;20885891;28;20094;-81
2021/06/04 09:44:14;;;;;;;2.50;1.80;;;20.90;67.40;;;;;;20882582;28;20033;-79
2021/06/04 09:54:16;;;;;;;5.20;2.40;;;21.00;67.40;;;;;;20895528;28;20083;-79
2021/06/04 10:04:29;;;;;;;2.28;1.77;;;21.00;67.40;;;;;;20846127;28;20033;-81
2021/06/04 10:14:49;;;;;;;2.30;1.92;;;21.00;67.40;;;;;;20895088;28;20044;-77
2021/06/04 10:24:52;;;;;;;2.53;1.90;;;21.00;67.40;;;;;;20946773;28;20032;-81
2021/06/04 10:35:28;;;;;;;2.47;2.05;;;21.00;67.40;;;;;;20844363;28;20178;-79
2021/06/04 10:45:34;;;;;;;3.28;2.05;;;21.00;67.40;;;;;;20884890;28;20048;-75
2021/06/04 10:55:43;;;;;;;2.35;2.10;;;21.00;67.40;;;;;;20905469;28;20102;-78
2021/06/04 11:06:04;;;;;;;3.30;2.28;;;21.10;67.40;;;;;;20873022;28;20041;-76
2021/06/04 11:16:28;;;;;;;3.58;2.13;;;21.00;67.40;;;;;;20858879;28;20094;-81
2021/06/04 11:26:47;;;;;;;3.13;1.98;;;21.00;67.60;;;;;;20903017;28;20064;-77
2021/06/04 11:36:48;;;;;;;3.55;1.83;;;21.10;67.90;;;;;;20887356;28;20036;-81
2021/06/04 11:47:13;;;;;;;3.38;2.10;;;21.10;67.90;;;;;;20844102;28;20391;-78
2021/06/04 11:57:46;;;;;;;2.63;1.70;;;21.10;68.00;;;;;;20904315;28;20402;-78
2021/06/04 12:08:15;;;;;;;2.15;1.63;;;21.10;67.90;;;;;;20863778;28;20044;-76
2021/06/04 12:18:31;;;;;;;3.35;1.85;;;21.10;67.80;;;;;;20951638;28;20029;-82
2021/06/04 12:28:34;;;;;;;2.20;1.63;;;21.20;67.70;;;;;;20891969;28;20400;-81
2021/06/04 12:38:37;;;;;;;4.45;2.08;;;21.20;67.60;;;;;;20821277;28;20037;-79
2021/06/04 12:48:41;;;;;;;3.03;2.10;;;21.20;67.60;;;;;;20845135;28;20033;-79
2021/06/04 12:58:48;;;;;;;3.55;2.05;;;21.30;67.80;;;;;;20894119;28;20558;-78
2021/06/04 13:08:48;;;;;;;5.40;2.10;;;21.30;67.70;;;;;;20897350;28;20040;-79
2021/06/04 13:18:50;;;;;;;4.07;1.90;;;21.40;68.00;;;;;;20881700;28;20488;-79
2021/06/04 13:28:55;;;;;;;3.55;2.00;;;21.40;68.10;;;;;;20865401;28;20496;-79
2021/06/04 13:39:01;;;;;;;2.90;2.33;;;21.50;68.10;;;;;;20892218;28;20029;-80
2021/06/04 13:49:09;;;;;;;3.00;2.20;;;21.50;67.90;;;;;;20894755;28;20036;-81
2021/06/04 13:59:15;;;;;;;3.95;2.90;;;21.60;67.70;;;;;;20858403;28;20496;-79
2021/06/04 14:09:36;;;;;;;5.30;2.95;;;21.70;67.50;;;;;;20906866;28;20033;-80
2021/06/04 14:19:55;;;;;;;3.28;2.60;;;21.80;67.50;;;;;;20873720;28;20114;-77
2021/06/04 14:30:03;;;;;;;3.22;2.70;;;21.80;67.40;;;;;;20889123;28;20083;-80
2021/06/04 14:40:15;;;;;;;5.75;2.65;;;21.90;67.20;;;;;;20834036;28;20056;-81
2021/06/04 14:50:24;;;;;;;3.40;2.75;;;22.10;67.20;;;;;;20932456;28;20103;-79
2021/06/04 15:00:25;;;;;;;4.10;2.75;;;22.10;67.10;;;;;;20788360;28;20040;-79
2021/06/04 15:10:26;;;;;;;5.40;2.83;;;22.10;67.20;;;;;;20862559;28;20033;-80
2021/06/04 15:20:29;;;;;;;5.75;2.75;;;22.10;67.20;;;;;;20895009;28;20395;-80
2021/06/04 15:30:30;;;;;;;3.13;2.22;;;22.10;67.20;;;;;;20825055;28;20033;-80
2021/06/04 15:40:31;;;;;;;3.97;2.92;;;22.10;67.20;;;;;;20901019;28;20610;-79
2021/06/04 15:50:33;;;;;;;4.40;2.65;;;22.20;67.10;;;;;;20912465;28;20443;-79
2021/06/04 16:00:34;;;;;;;2.50;2.30;;;22.30;66.90;;;;;;20818878;28;20492;-80
2021/06/04 16:10:36;;;;;;;3.20;2.55;;;22.40;66.80;;;;;;20816017;28;20047;-81
2021/06/04 16:20:38;;;;;;;4.45;2.85;;;22.40;66.60;;;;;;20869539;28;20052;-80
2021/06/04 16:30:39;;;;;;;2.95;2.15;;;22.50;66.50;;;;;;20995527;28;20055;-80
2021/06/04 16:40:40;;;;;;;3.00;2.50;;;22.60;66.30;;;;;;20994999;28;20076;-80
2021/06/04 16:50:43;;;;;;;2.85;2.40;;;22.60;66.20;;;;;;20977702;28;20086;-79
2021/06/04 17:00:49;;;;;;;2.78;2.33;;;22.60;66.20;;;;;;20976628;28;20127;-79
2021/06/04 17:10:50;;;;;;;3.00;2.22;;;22.60;66.20;;;;;;20993150;28;20032;-80
2021/06/04 17:20:51;;;;;;;3.07;2.30;;;22.60;66.20;;;;;;20963300;28;20101;-78
2021/06/04 17:30:52;;;;;;;3.30;2.40;;;22.50;66.30;;;;;;20912592;28;20475;-83
2021/06/04 17:40:56;;;;;;;3.85;2.63;;;22.40;66.40;;;;;;20867371;28;20114;-77
2021/06/04 17:50:57;;;;;;;2.95;2.10;;;22.40;66.50;;;;;;20839964;28;20068;-76
2021/06/04 18:00:58;;;;;;;2.72;1.92;;;22.40;66.60;;;;;;20894398;28;20082;-76
2021/06/04 18:10:59;;;;;;;3.03;2.25;;;22.30;66.60;;;;;;20905305;28;20118;-79
2021/06/04 18:21:00;;;;;;;2.83;1.83;;;22.30;66.60;;;;;;20961143;28;20123;-78
2021/06/04 18:31:02;;;;;;;2.25;1.70;;;22.20;66.80;;;;;;20892796;28;20399;-79
2021/06/04 18:41:03;;;;;;;3.88;2.47;;;22.20;67.00;;;;;;20868741;28;20033;-77
2021/06/04 18:51:04;;;;;;;3.63;2.75;;;22.10;67.10;;;;;;20875398;28;20031;-80
2021/06/04 19:01:09;;;;;;;2.60;1.70;;;22.10;67.20;;;;;;21017672;28;20040;-79
2021/06/04 19:11:11;;;;;;;2.47;2.28;;;22.10;67.40;;;;;;20904194;28;20437;-80
2021/06/04 19:21:13;;;;;;;2.80;2.00;;;22.10;67.50;;;;;;20943833;28;20049;-74
2021/06/04 19:31:14;;;;;;;2.38;2.10;;;22.00;67.50;;;;;;20881306;28;20036;-82
2021/06/04 19:41:20;;;;;;;2.63;2.05;;;22.00;67.50;;;;;;20877188;28;20041;-80
2021/06/04 19:51:26;;;;;;;3.05;2.08;;;22.00;67.60;;;;;;20862279;28;20033;-80
2021/06/04 20:01:27;;;;;;;1.95;1.75;;;22.00;67.70;;;;;;20840604;28;20404;-79
2021/06/04 20:11:28;;;;;;;2.50;1.80;;;21.90;67.80;;;;;;20904607;28;20060;-81
2021/06/04 20:21:29;;;;;;;2.97;2.30;;;22.10;67.90;;;;;;20852836;28;20557;-83
2021/06/04 20:31:31;;;;;;;2.50;2.10;;;21.90;67.80;;;;;;20908113;28;20033;-82
2021/06/04 20:41:32;;;;;;;2.50;1.80;;;21.90;67.90;;;;;;20925214;28;20118;-83
2021/06/04 20:51:34;;;;;;;2.83;2.25;;;21.90;67.90;;;;;;20894639;28;20028;-82
2021/06/04 21:01:36;;;;;;;2.08;1.88;;;21.90;67.90;;;;;;20895321;28;20052;-81
2021/06/04 21:11:37;;;;;;;3.03;1.70;;;21.90;68.00;;;;;;20924881;28;20038;-83
2021/06/04 21:21:40;;;;;;;3.40;1.88;;;21.90;68.00;;;;;;20923560;28;20041;-82
2021/06/04 21:31:40;;;;;;;2.60;1.95;;;21.90;68.10;;;;;;20967941;28;20045;-82
2021/06/04 21:41:42;;;;;;;2.45;1.88;;;21.90;68.00;;;;;;20997457;28;20044;-83
2021/06/04 21:51:44;;;;;;;3.20;2.50;;;21.90;68.10;;;;;;20931434;28;20098;-82
2021/06/04 22:01:47;;;;;;;2.85;2.03;;;21.90;68.20;;;;;;20989312;28;20043;-82
2021/06/04 22:11:50;;;;;;;2.30;2.10;;;21.80;68.00;;;;;;20933394;28;20033;-83
2021/06/04 22:21:51;;;;;;;3.20;2.30;;;21.90;68.10;;;;;;20987877;28;20042;-83
2021/06/04 22:31:54;;;;;;;2.25;2.00;;;22.00;68.20;;;;;;20939401;28;20394;-83
2021/06/04 22:41:58;;;;;;;2.25;1.80;;;21.80;68.10;;;;;;20937445;28;20040;-82
2021/06/04 22:52:01;;;;;;;2.92;2.15;;;21.80;68.10;;;;;;20897598;28;20123;-83
2021/06/04 23:02:04;;;;;;;2.30;2.05;;;21.80;68.10;;;;;;20895408;28;20124;-83
2021/06/04 23:12:07;;;;;;;2.55;2.15;;;21.80;68.10;;;;;;20978859;28;20048;-83
2021/06/04 23:22:08;;;;;;;2.45;1.83;;;21.80;68.10;;;;;;20932720;28;20068;-83
2021/06/04 23:32:09;;;;;;;2.78;2.20;;;21.80;68.10;;;;;;20918483;28;20040;-84
2021/06/04 23:42:11;;;;;;;2.35;1.88;;;21.80;68.10;;;;;;20943610;28;20134;-83
2021/06/04 23:52:12;;;;;;;3.28;2.50;;;21.70;68.10;;;;;;20900188;28;20041;-82
